createdAt,value
2024-05-09T00:00:44.605Z,11.54
2024-05-09T00:01:44.509Z,11.52
2024-05-09T00:02:44.453Z,11.54
2024-05-09T00:03:44.540Z,11.53
2024-05-09T00:04:44.482Z,11.50
2024-05-09T00:05:44.706Z,11.43
2024-05-09T00:06:44.301Z,11.34
2024-05-09T00:07:44.306Z,11.39
2024-05-09T00:08:44.311Z,11.32
2024-05-09T00:09:44.203Z,11.39
2024-05-09T00:10:44.278Z,11.32
2024-05-09T00:11:44.183Z,11.29
2024-05-09T00:12:44.097Z,11.32
2024-05-09T00:13:44.132Z,11.29
2024-05-09T00:14:44.028Z,11.29
2024-05-09T00:15:44.002Z,11.28
2024-05-09T00:16:44.014Z,11.29
2024-05-09T00:17:44.088Z,11.29
2024-05-09T00:18:43.994Z,11.35
2024-05-09T00:19:43.954Z,11.39
2024-05-09T00:20:43.841Z,11.29
2024-05-09T00:21:43.847Z,11.25
2024-05-09T00:22:43.776Z,11.34
2024-05-09T00:23:43.734Z,11.29
2024-05-09T00:24:43.675Z,11.25
2024-05-09T00:25:44.282Z,11.27
2024-05-09T00:26:43.642Z,11.24
2024-05-09T00:27:43.570Z,11.25
2024-05-09T00:28:43.603Z,11.28
2024-05-09T00:29:43.502Z,11.25
2024-05-09T00:30:43.469Z,11.19
2024-05-09T00:31:43.453Z,11.28
2024-05-09T00:32:43.708Z,11.20
2024-05-09T00:33:43.484Z,11.24
2024-05-09T00:34:43.333Z,11.21
2024-05-09T00:35:43.349Z,11.19
2024-05-09T00:36:43.251Z,11.13
2024-05-09T00:37:43.299Z,11.07
2024-05-09T00:38:43.237Z,11.11
2024-05-09T00:39:43.155Z,11.16
2024-05-09T00:40:43.822Z,11.19
2024-05-09T00:41:43.106Z,11.09
2024-05-09T00:42:43.048Z,11.09
2024-05-09T00:43:43.030Z,11.14
2024-05-09T00:44:42.985Z,11.16
2024-05-09T00:45:43.211Z,11.17
2024-05-09T00:46:42.939Z,11.17
2024-05-09T00:47:42.955Z,11.13
2024-05-09T00:48:42.893Z,11.13
2024-05-09T00:49:42.999Z,11.17
2024-05-09T00:50:42.897Z,11.14
2024-05-09T00:51:42.736Z,11.10
2024-05-09T00:52:42.744Z,11.06
2024-05-09T00:53:42.765Z,11.07
2024-05-09T00:54:42.622Z,11.10
2024-05-09T00:55:42.876Z,11.01
2024-05-09T00:56:42.563Z,10.96
2024-05-09T00:57:42.519Z,11.01
2024-05-09T00:58:42.525Z,11.06
2024-05-09T00:59:42.452Z,11.01
2024-05-09T01:00:42.464Z,11.01
2024-05-09T01:01:42.535Z,10.94
2024-05-09T01:02:42.433Z,10.95
2024-05-09T01:03:42.463Z,10.89
2024-05-09T01:04:42.390Z,10.88
2024-05-09T01:05:42.677Z,10.86
2024-05-09T01:06:42.201Z,10.88
2024-05-09T01:07:42.363Z,10.84
2024-05-09T01:08:42.222Z,10.81
2024-05-09T01:09:42.096Z,10.74
2024-05-09T01:10:44.860Z,10.76
2024-05-09T01:11:42.090Z,10.76
2024-05-09T01:12:42.010Z,10.73
2024-05-09T01:13:41.971Z,10.71
2024-05-09T01:14:41.935Z,10.71
2024-05-09T01:15:41.892Z,10.68
2024-05-09T01:16:41.849Z,10.71
2024-05-09T01:17:42.044Z,10.71
2024-05-09T01:18:41.835Z,10.77
2024-05-09T01:19:41.839Z,10.70
2024-05-09T01:20:44.243Z,10.70
2024-05-09T01:21:41.691Z,10.71
2024-05-09T01:22:41.653Z,10.73
2024-05-09T01:23:41.637Z,10.68
2024-05-09T01:24:41.572Z,10.70
2024-05-09T01:25:41.531Z,10.73
2024-05-09T01:26:41.527Z,10.71
2024-05-09T01:27:41.455Z,10.65
2024-05-09T01:28:41.429Z,10.74
2024-05-09T01:29:41.398Z,10.60
2024-05-09T01:30:41.359Z,10.63
2024-05-09T01:31:41.345Z,10.62
2024-05-09T01:32:41.515Z,10.63
2024-05-09T01:33:41.452Z,10.65
2024-05-09T01:34:41.213Z,10.55
2024-05-09T01:35:42.563Z,10.60
2024-05-09T01:36:41.140Z,10.58
2024-05-09T01:37:41.120Z,10.60
2024-05-09T01:38:41.089Z,10.52
2024-05-09T01:39:41.050Z,10.56
2024-05-09T01:40:41.017Z,10.47
2024-05-09T01:41:40.963Z,10.52
2024-05-09T01:42:40.923Z,10.52
2024-05-09T01:43:40.892Z,10.51
2024-05-09T01:44:40.862Z,10.53
2024-05-09T01:45:41.305Z,10.46
2024-05-09T01:46:40.785Z,10.47
2024-05-09T01:47:40.963Z,10.52
2024-05-09T01:48:40.884Z,10.55
2024-05-09T01:49:40.780Z,10.53
2024-05-09T01:50:42.647Z,10.44
2024-05-09T01:51:40.613Z,10.46
2024-05-09T01:52:40.577Z,10.44
2024-05-09T01:53:40.589Z,10.55
2024-05-09T01:54:40.517Z,10.55
2024-05-09T01:55:40.482Z,10.43
2024-05-09T01:56:40.481Z,10.46
2024-05-09T01:57:40.405Z,10.51
2024-05-09T01:58:40.377Z,10.42
2024-05-09T01:59:40.458Z,10.40
2024-05-09T02:00:42.619Z,10.43
2024-05-09T02:01:55.992Z,10.37
2024-05-09T02:02:40.311Z,10.30
2024-05-09T02:03:40.395Z,10.39
2024-05-09T02:04:40.227Z,10.40
2024-05-09T02:05:40.242Z,10.46
2024-05-09T02:06:40.085Z,10.42
2024-05-09T02:07:40.045Z,10.43
2024-05-09T02:08:40.027Z,10.36
2024-05-09T02:09:39.978Z,10.44
2024-05-09T02:10:39.942Z,10.42
2024-05-09T02:11:40.027Z,10.43
2024-05-09T02:12:39.886Z,10.36
2024-05-09T02:13:39.844Z,10.37
2024-05-09T02:14:39.829Z,10.33
2024-05-09T02:15:39.783Z,10.36
2024-05-09T02:16:39.732Z,10.33
2024-05-09T02:17:39.885Z,10.37
2024-05-09T02:18:39.739Z,10.33
2024-05-09T02:19:39.701Z,10.30
2024-05-09T02:20:39.846Z,10.33
2024-05-09T02:21:39.555Z,10.28
2024-05-09T02:22:39.519Z,10.33
2024-05-09T02:23:39.560Z,10.32
2024-05-09T02:24:39.440Z,10.34
2024-05-09T02:25:39.433Z,10.25
2024-05-09T02:26:39.430Z,10.26
2024-05-09T02:27:39.333Z,10.28
2024-05-09T02:28:39.304Z,10.25
2024-05-09T02:29:39.309Z,10.32
2024-05-09T02:30:41.574Z,10.28
2024-05-09T02:31:39.197Z,10.28
2024-05-09T02:32:39.411Z,10.32
2024-05-09T02:33:39.219Z,10.33
2024-05-09T02:34:39.122Z,10.30
2024-05-09T02:35:39.101Z,10.34
2024-05-09T02:36:39.018Z,10.19
2024-05-09T02:37:38.980Z,10.25
2024-05-09T02:38:38.975Z,10.26
2024-05-09T02:39:38.925Z,10.26
2024-05-09T02:40:39.995Z,10.24
2024-05-09T02:41:38.911Z,10.24
2024-05-09T02:42:38.804Z,10.30
2024-05-09T02:43:38.785Z,10.18
2024-05-09T02:44:38.778Z,10.18
2024-05-09T02:45:38.749Z,10.24
2024-05-09T02:46:38.668Z,10.22
2024-05-09T02:47:38.771Z,10.22
2024-05-09T02:48:38.687Z,10.17
2024-05-09T02:49:38.739Z,10.12
2024-05-09T02:50:39.971Z,10.15
2024-05-09T02:51:38.483Z,10.15
2024-05-09T02:52:38.459Z,10.10
2024-05-09T02:53:38.542Z,10.17
2024-05-09T02:54:38.378Z,10.24
2024-05-09T02:55:38.345Z,10.10
2024-05-09T02:56:38.364Z,10.17
2024-05-09T02:57:38.274Z,10.15
2024-05-09T02:58:38.238Z,10.19
2024-05-09T02:59:38.259Z,10.21
2024-05-09T03:00:41.144Z,10.17
2024-05-09T03:01:38.212Z,10.04
2024-05-09T03:02:38.163Z,10.09
2024-05-09T03:03:38.256Z,10.10
2024-05-09T03:04:38.176Z,10.03
2024-05-09T03:05:38.127Z,10.04
2024-05-09T03:06:37.945Z,10.12
2024-05-09T03:07:37.911Z,10.04
2024-05-09T03:08:37.918Z,10.06
2024-05-09T03:09:37.853Z,10.00
2024-05-09T03:10:39.149Z,10.01
2024-05-09T03:11:37.881Z,9.97
2024-05-09T03:12:39.345Z,10.04
2024-05-09T03:13:37.698Z,10.03
2024-05-09T03:14:37.756Z,9.89
2024-05-09T03:15:37.631Z,10.04
2024-05-09T03:16:37.596Z,10.00
2024-05-09T03:17:37.706Z,9.94
2024-05-09T03:18:37.597Z,10.03
2024-05-09T03:19:37.719Z,9.99
2024-05-09T03:20:37.585Z,9.93
2024-05-09T03:21:37.413Z,9.96
2024-05-09T03:22:37.374Z,9.93
2024-05-09T03:23:37.385Z,9.86
2024-05-09T03:24:37.331Z,9.88
2024-05-09T03:25:37.289Z,9.96
2024-05-09T03:26:37.279Z,9.97
2024-05-09T03:27:37.199Z,9.79
2024-05-09T03:28:37.166Z,9.81
2024-05-09T03:29:37.165Z,9.89
2024-05-09T03:30:41.831Z,9.71
2024-05-09T03:31:37.103Z,9.83
2024-05-09T03:32:37.177Z,9.83
2024-05-09T03:33:37.422Z,9.88
2024-05-09T03:34:36.955Z,9.79
2024-05-09T03:35:36.966Z,9.75
2024-05-09T03:36:36.880Z,9.83
2024-05-09T03:37:36.844Z,9.83
2024-05-09T03:38:36.856Z,9.75
2024-05-09T03:39:36.778Z,9.71
2024-05-09T03:40:36.734Z,9.73
2024-05-09T03:41:36.783Z,9.79
2024-05-09T03:42:36.665Z,9.81
2024-05-09T03:43:36.625Z,9.82
2024-05-09T03:44:36.643Z,9.76
2024-05-09T03:45:36.573Z,9.78
2024-05-09T03:46:36.519Z,9.78
2024-05-09T03:47:36.671Z,9.68
2024-05-09T03:48:36.555Z,9.73
2024-05-09T03:49:36.489Z,9.71
2024-05-09T03:50:37.248Z,9.71
2024-05-09T03:51:36.338Z,9.73
2024-05-09T03:52:36.304Z,9.78
2024-05-09T03:53:36.383Z,9.67
2024-05-09T03:54:36.240Z,9.73
2024-05-09T03:55:36.211Z,9.61
2024-05-09T03:56:36.232Z,9.68
2024-05-09T03:57:36.126Z,9.70
2024-05-09T03:58:36.758Z,9.64
2024-05-09T03:59:36.129Z,9.68
2024-05-09T04:00:38.968Z,9.68
2024-05-09T04:01:36.072Z,9.66
2024-05-09T04:02:36.059Z,9.66
2024-05-09T04:03:36.078Z,9.61
2024-05-09T04:04:35.997Z,9.67
2024-05-09T04:05:36.050Z,9.60
2024-05-09T04:06:35.798Z,9.60
2024-05-09T04:07:35.766Z,9.61
2024-05-09T04:08:35.906Z,9.56
2024-05-09T04:09:35.694Z,9.56
2024-05-09T04:10:35.909Z,9.56
2024-05-09T04:11:35.703Z,9.52
2024-05-09T04:12:35.627Z,9.57
2024-05-09T04:13:35.569Z,9.46
2024-05-09T04:14:35.556Z,9.56
2024-05-09T04:15:35.490Z,9.46
2024-05-09T04:16:35.443Z,9.46
2024-05-09T04:17:35.669Z,9.46
2024-05-09T04:18:35.458Z,9.56
2024-05-09T04:19:35.392Z,9.49
2024-05-09T04:20:39.049Z,9.49
2024-05-09T04:21:35.263Z,9.49
2024-05-09T04:22:35.227Z,9.46
2024-05-09T04:23:35.258Z,9.52
2024-05-09T04:24:35.161Z,9.48
2024-05-09T04:25:35.159Z,9.48
2024-05-09T04:26:35.178Z,9.49
2024-05-09T04:27:35.044Z,9.43
2024-05-09T04:28:35.011Z,9.49
2024-05-09T04:29:35.030Z,9.43
2024-05-09T04:30:39.148Z,9.46
2024-05-09T04:31:34.902Z,9.49
2024-05-09T04:32:35.052Z,9.48
2024-05-09T04:33:35.106Z,9.48
2024-05-09T04:34:34.912Z,9.46
2024-05-09T04:35:34.794Z,9.49
2024-05-09T04:36:34.725Z,9.43
2024-05-09T04:37:34.693Z,9.48
2024-05-09T04:38:34.795Z,9.45
2024-05-09T04:39:34.622Z,9.48
2024-05-09T04:40:36.651Z,9.48
2024-05-09T04:41:34.573Z,9.48
2024-05-09T04:42:34.506Z,9.50
2024-05-09T04:43:34.472Z,9.52
2024-05-09T04:44:34.533Z,9.56
2024-05-09T04:45:34.731Z,9.53
2024-05-09T04:46:34.364Z,9.49
2024-05-09T04:47:34.489Z,9.46
2024-05-09T04:48:34.464Z,9.50
2024-05-09T04:49:34.324Z,9.61
2024-05-09T04:50:38.108Z,9.58
2024-05-09T04:51:34.189Z,9.67
2024-05-09T04:52:34.148Z,9.60
2024-05-09T04:53:34.150Z,9.64
2024-05-09T04:54:36.506Z,9.56
2024-05-09T04:55:34.046Z,9.67
2024-05-09T04:56:34.093Z,9.58
2024-05-09T04:57:33.957Z,9.71
2024-05-09T04:58:33.932Z,9.66
2024-05-09T04:59:34.017Z,9.67
2024-05-09T05:00:36.828Z,9.68
2024-05-09T05:01:33.836Z,9.76
2024-05-09T05:02:33.828Z,9.75
2024-05-09T05:03:33.877Z,9.70
2024-05-09T05:04:33.838Z,9.70
2024-05-09T05:05:33.707Z,9.71
2024-05-09T05:06:33.647Z,9.71
2024-05-09T05:07:33.606Z,9.73
2024-05-09T05:08:33.716Z,9.75
2024-05-09T05:09:33.541Z,9.78
2024-05-09T05:10:36.350Z,9.93
2024-05-09T05:11:33.501Z,9.78
2024-05-09T05:12:33.453Z,9.86
2024-05-09T05:13:33.388Z,9.83
2024-05-09T05:14:33.411Z,9.89
2024-05-09T05:15:33.324Z,9.91
2024-05-09T05:16:33.282Z,9.85
2024-05-09T05:17:33.492Z,9.89
2024-05-09T05:18:33.252Z,9.86
2024-05-09T05:19:33.294Z,10.03
2024-05-09T05:20:34.229Z,10.01
2024-05-09T05:21:33.197Z,10.01
2024-05-09T05:22:33.089Z,10.01
2024-05-09T05:23:33.159Z,10.00
2024-05-09T05:24:32.998Z,9.97
2024-05-09T05:25:32.967Z,10.03
2024-05-09T05:26:32.989Z,10.00
2024-05-09T05:27:32.892Z,10.06
2024-05-09T05:28:32.857Z,10.06
2024-05-09T05:29:32.838Z,10.09
2024-05-09T05:30:34.821Z,10.07
2024-05-09T05:31:32.789Z,10.14
2024-05-09T05:32:32.884Z,10.06
2024-05-09T05:33:32.879Z,10.18
2024-05-09T05:34:32.641Z,10.17
2024-05-09T05:35:32.918Z,10.26
2024-05-09T05:36:32.580Z,10.24
2024-05-09T05:37:32.538Z,10.25
2024-05-09T05:38:32.624Z,10.36
2024-05-09T05:39:32.475Z,10.32
2024-05-09T05:40:36.541Z,10.32
2024-05-09T05:41:32.448Z,10.39
2024-05-09T05:42:32.357Z,10.42
2024-05-09T05:43:32.321Z,10.42
2024-05-09T05:44:32.359Z,10.40
2024-05-09T05:45:32.275Z,10.40
2024-05-09T05:46:32.220Z,10.36
2024-05-09T05:47:32.400Z,10.52
2024-05-09T05:48:32.260Z,10.56
2024-05-09T05:49:32.282Z,10.51
2024-05-09T05:50:36.138Z,10.52
2024-05-09T05:51:32.031Z,10.55
2024-05-09T05:52:31.998Z,10.55
2024-05-09T05:53:32.001Z,10.68
2024-05-09T05:54:31.938Z,10.66
2024-05-09T05:55:31.892Z,10.65
2024-05-09T05:56:31.942Z,10.73
2024-05-09T05:57:31.832Z,10.71
2024-05-09T05:58:31.785Z,10.71
2024-05-09T05:59:31.981Z,10.70
2024-05-09T06:00:37.935Z,10.80
2024-05-09T06:01:31.731Z,10.77
2024-05-09T06:02:31.837Z,10.74
2024-05-09T06:03:31.824Z,10.84
2024-05-09T06:04:31.608Z,10.88
2024-05-09T06:05:31.608Z,10.91
2024-05-09T06:06:31.496Z,10.98
2024-05-09T06:07:31.467Z,10.96
2024-05-09T06:08:31.492Z,10.98
2024-05-09T06:09:31.395Z,11.02
2024-05-09T06:10:37.845Z,10.98
2024-05-09T06:11:31.615Z,11.10
2024-05-09T06:12:31.292Z,11.10
2024-05-09T06:13:31.280Z,11.10
2024-05-09T06:14:31.307Z,11.17
2024-05-09T06:15:31.223Z,11.10
2024-05-09T06:16:31.148Z,11.10
2024-05-09T06:17:31.205Z,11.09
2024-05-09T06:18:31.250Z,11.16
2024-05-09T06:19:31.149Z,11.24
2024-05-09T06:20:35.895Z,11.24
2024-05-09T06:21:30.978Z,11.20
2024-05-09T06:22:30.945Z,11.28
2024-05-09T06:23:30.977Z,11.27
2024-05-09T06:24:30.871Z,11.28
2024-05-09T06:25:30.839Z,11.36
2024-05-09T06:26:30.901Z,11.36
2024-05-09T06:27:30.757Z,11.44
2024-05-09T06:28:30.737Z,11.47
2024-05-09T06:29:30.761Z,11.44
2024-05-09T06:30:38.152Z,11.38
2024-05-09T06:31:30.668Z,11.47
2024-05-09T06:32:30.707Z,11.61
2024-05-09T06:33:30.771Z,11.54
2024-05-09T06:34:30.645Z,11.53
2024-05-09T06:35:30.663Z,11.54
2024-05-09T06:36:30.460Z,11.53
2024-05-09T06:37:30.425Z,11.56
2024-05-09T06:38:30.454Z,11.52
2024-05-09T06:39:30.358Z,11.57
2024-05-09T06:40:36.952Z,11.57
2024-05-09T06:41:30.373Z,11.53
2024-05-09T06:42:30.241Z,11.65
2024-05-09T06:43:30.211Z,11.61
2024-05-09T06:44:30.302Z,11.74
2024-05-09T06:45:30.136Z,11.68
2024-05-09T06:46:30.103Z,11.77
2024-05-09T06:47:30.243Z,11.74
2024-05-09T06:48:30.315Z,11.74
2024-05-09T06:49:30.221Z,11.61
2024-05-09T06:50:35.783Z,11.78
2024-05-09T06:51:29.920Z,11.70
2024-05-09T06:52:29.890Z,11.67
2024-05-09T06:53:29.918Z,11.83
2024-05-09T06:54:29.819Z,11.85
2024-05-09T06:55:29.829Z,11.86
2024-05-09T06:56:29.988Z,11.86
2024-05-09T06:57:29.715Z,11.86
2024-05-09T06:58:29.683Z,11.89
2024-05-09T06:59:29.793Z,11.99
2024-05-09T07:00:35.621Z,11.94
2024-05-09T07:01:29.616Z,11.94
2024-05-09T07:02:29.598Z,12.01
2024-05-09T07:03:29.652Z,12.04
2024-05-09T07:04:29.584Z,12.11
2024-05-09T07:05:29.517Z,12.11
2024-05-09T07:06:29.409Z,12.12
2024-05-09T07:07:29.369Z,12.16
2024-05-09T07:08:29.412Z,12.15
2024-05-09T07:09:29.297Z,12.16
2024-05-09T07:10:34.587Z,12.06
2024-05-09T07:11:29.270Z,12.21
2024-05-09T07:12:29.291Z,12.20
2024-05-09T07:13:29.163Z,12.30
2024-05-09T07:14:29.317Z,12.26
2024-05-09T07:15:29.109Z,12.38
2024-05-09T07:16:29.057Z,12.23
2024-05-09T07:17:29.326Z,12.26
2024-05-09T07:18:29.126Z,12.29
2024-05-09T07:19:29.079Z,12.37
2024-05-09T07:20:34.443Z,12.31
2024-05-09T07:21:28.891Z,12.38
2024-05-09T07:22:28.854Z,12.48
2024-05-09T07:23:28.842Z,12.48
2024-05-09T07:24:28.782Z,12.44
2024-05-09T07:25:28.934Z,12.54
2024-05-09T07:26:28.779Z,12.59
2024-05-09T07:27:28.687Z,12.60
2024-05-09T07:28:28.664Z,12.60
2024-05-09T07:29:28.737Z,12.60
2024-05-09T07:30:33.344Z,12.56
2024-05-09T07:31:28.545Z,12.60
2024-05-09T07:32:28.734Z,12.60
2024-05-09T07:33:28.846Z,12.67
2024-05-09T07:34:28.553Z,12.64
2024-05-09T07:35:28.575Z,12.64
2024-05-09T07:36:28.370Z,12.67
2024-05-09T07:37:28.333Z,12.79
2024-05-09T07:38:28.342Z,12.78
2024-05-09T07:39:28.271Z,12.71
2024-05-09T07:40:34.919Z,12.85
2024-05-09T07:41:28.239Z,12.79
2024-05-09T07:42:28.158Z,12.78
2024-05-09T07:43:28.127Z,12.75
2024-05-09T07:44:28.203Z,12.78
2024-05-09T07:45:45.005Z,12.78
2024-05-09T07:47:36.503Z,12.77
2024-05-09T07:50:00.645Z,12.85
2024-05-09T07:53:32.392Z,12.96
2024-05-09T07:53:39.839Z,12.99
2024-05-09T07:54:27.995Z,12.95
2024-05-09T07:55:27.972Z,13.02
2024-05-09T07:56:28.006Z,13.06
2024-05-09T07:57:27.683Z,13.12
2024-05-09T07:58:28.000Z,13.15
2024-05-09T07:59:27.598Z,13.09
2024-05-09T08:00:31.458Z,13.14
2024-05-09T08:01:27.744Z,13.22
2024-05-09T08:02:27.729Z,13.15
2024-05-09T08:03:27.580Z,13.18
2024-05-09T08:04:27.610Z,13.25
2024-05-09T08:05:27.511Z,13.33
2024-05-09T08:06:27.472Z,13.30
2024-05-09T08:07:27.316Z,13.24
2024-05-09T08:08:27.275Z,13.22
2024-05-09T08:09:27.268Z,13.41
2024-05-09T08:10:29.063Z,13.38
2024-05-09T08:11:27.213Z,13.41
2024-05-09T08:12:27.156Z,13.43
2024-05-09T08:13:27.107Z,13.47
2024-05-09T08:14:27.073Z,13.49
2024-05-09T08:15:27.112Z,13.56
2024-05-09T08:16:27.075Z,13.58
2024-05-09T08:17:27.094Z,13.58
2024-05-09T08:18:27.165Z,13.58
2024-05-09T08:19:26.995Z,13.70
2024-05-09T08:20:31.215Z,13.79
2024-05-09T08:21:26.893Z,13.76
2024-05-09T08:22:26.811Z,13.67
2024-05-09T08:23:26.776Z,13.76
2024-05-09T08:24:26.779Z,13.77
2024-05-09T08:25:26.813Z,13.89
2024-05-09T08:26:26.663Z,13.94
2024-05-09T08:27:26.688Z,13.91
2024-05-09T08:28:26.646Z,13.98
2024-05-09T08:29:26.562Z,14.09
2024-05-09T08:30:33.168Z,14.12
2024-05-09T08:31:26.544Z,14.07
2024-05-09T08:32:26.558Z,14.14
2024-05-09T08:33:26.516Z,14.07
2024-05-09T08:34:26.580Z,14.13
2024-05-09T08:35:26.446Z,14.09
2024-05-09T08:36:26.442Z,14.25
2024-05-09T08:37:30.963Z,14.29
2024-05-09T08:38:26.266Z,14.28
2024-05-09T08:39:26.227Z,14.31
2024-05-09T08:40:33.547Z,14.37
2024-05-09T08:41:26.163Z,14.38
2024-05-09T08:42:26.126Z,14.44
2024-05-09T08:43:26.136Z,14.44
2024-05-09T08:44:26.056Z,14.56
2024-05-09T08:45:26.088Z,14.53
2024-05-09T08:46:26.035Z,14.54
2024-05-09T08:47:26.054Z,14.61
2024-05-09T08:48:26.047Z,14.54
2024-05-09T08:49:26.022Z,14.54
2024-05-09T08:50:32.407Z,14.65
2024-05-09T08:51:25.841Z,14.65
2024-05-09T08:52:25.801Z,14.69
2024-05-09T08:53:25.771Z,14.69
2024-05-09T08:54:25.745Z,14.78
2024-05-09T08:55:25.808Z,14.90
2024-05-09T08:56:25.664Z,14.88
2024-05-09T08:57:25.660Z,14.88
2024-05-09T08:58:25.609Z,14.98
2024-05-09T08:59:25.564Z,14.93
2024-05-09T09:00:33.974Z,14.99
2024-05-09T09:01:25.668Z,14.99
2024-05-09T09:02:25.553Z,15.08
2024-05-09T09:03:25.507Z,15.01
2024-05-09T09:04:25.503Z,15.03
2024-05-09T09:05:25.586Z,15.03
2024-05-09T09:06:25.332Z,15.03
2024-05-09T09:07:25.454Z,15.15
2024-05-09T09:08:25.269Z,15.09
2024-05-09T09:09:25.334Z,15.09
2024-05-09T09:10:31.399Z,15.19
2024-05-09T09:11:25.218Z,15.30
2024-05-09T09:12:25.150Z,15.26
2024-05-09T09:13:25.157Z,15.30
2024-05-09T09:14:25.072Z,15.45
2024-05-09T09:15:25.041Z,15.46
2024-05-09T09:16:25.066Z,15.43
2024-05-09T09:17:25.081Z,15.49
2024-05-09T09:18:25.081Z,15.51
2024-05-09T09:19:25.125Z,15.61
2024-05-09T09:20:29.566Z,15.66
2024-05-09T09:21:24.852Z,15.66
2024-05-09T09:22:24.829Z,15.66
2024-05-09T09:23:24.823Z,15.60
2024-05-09T09:24:24.752Z,15.72
2024-05-09T09:25:24.836Z,15.75
2024-05-09T09:26:24.697Z,15.81
2024-05-09T09:27:24.653Z,15.79
2024-05-09T09:28:24.621Z,15.75
2024-05-09T09:29:24.589Z,15.75
2024-05-09T09:30:34.633Z,15.81
2024-05-09T09:31:24.552Z,15.81
2024-05-09T09:32:24.528Z,15.86
2024-05-09T09:33:24.567Z,15.86
2024-05-09T09:34:24.686Z,15.84
2024-05-09T09:35:24.393Z,15.93
2024-05-09T09:36:24.368Z,15.93
2024-05-09T09:37:24.331Z,16.00
2024-05-09T09:38:24.295Z,16.04
2024-05-09T09:39:24.267Z,15.99
2024-05-09T09:41:24.200Z,16.09
2024-05-09T09:42:24.166Z,16.16
2024-05-09T09:43:24.200Z,16.20
2024-05-09T09:44:24.128Z,16.25
2024-05-09T09:45:24.072Z,16.45
2024-05-09T09:46:24.155Z,16.49
2024-05-09T09:47:24.070Z,16.56
2024-05-09T09:48:24.072Z,16.52
2024-05-09T09:49:23.982Z,16.52
2024-05-09T09:50:31.585Z,16.53
2024-05-09T09:51:23.892Z,16.60
2024-05-09T09:52:23.980Z,16.56
2024-05-09T09:53:23.855Z,16.68
2024-05-09T09:54:23.786Z,16.68
2024-05-09T09:55:23.844Z,16.70
2024-05-09T09:56:23.716Z,16.73
2024-05-09T09:57:23.686Z,16.70
2024-05-09T09:58:23.800Z,16.83
2024-05-09T09:59:23.628Z,16.80
2024-05-09T10:00:30.124Z,16.83
2024-05-09T10:01:23.658Z,16.83
2024-05-09T10:02:23.822Z,16.86
2024-05-09T10:03:23.564Z,16.75
2024-05-09T10:04:23.616Z,16.81
2024-05-09T10:05:23.732Z,16.92
2024-05-09T10:06:23.410Z,16.90
2024-05-09T10:07:23.413Z,16.96
2024-05-09T10:08:23.351Z,16.90
2024-05-09T10:09:23.323Z,16.98
2024-05-09T10:10:30.294Z,17.00
2024-05-09T10:11:23.280Z,17.00
2024-05-09T10:12:23.262Z,17.03
2024-05-09T10:13:23.263Z,17.08
2024-05-09T10:14:23.154Z,16.98
2024-05-09T10:15:23.126Z,17.14
2024-05-09T10:16:23.281Z,17.15
2024-05-09T10:17:23.089Z,17.17
2024-05-09T10:18:23.326Z,17.22
2024-05-09T10:19:23.117Z,17.17
2024-05-09T10:20:27.956Z,17.22
2024-05-09T10:21:22.959Z,17.28
2024-05-09T10:22:22.982Z,17.26
2024-05-09T10:23:22.881Z,17.29
2024-05-09T10:24:22.842Z,17.33
2024-05-09T10:25:23.052Z,17.36
2024-05-09T10:26:22.783Z,17.32
2024-05-09T10:27:22.760Z,17.28
2024-05-09T10:28:22.760Z,17.38
2024-05-09T10:29:22.694Z,17.35
2024-05-09T10:30:29.607Z,17.38
2024-05-09T10:31:22.703Z,17.43
2024-05-09T10:32:22.740Z,17.44
2024-05-09T10:33:22.628Z,17.53
2024-05-09T10:34:22.802Z,17.47
2024-05-09T10:35:22.512Z,17.53
2024-05-09T10:36:22.562Z,17.62
2024-05-09T10:37:22.491Z,17.66
2024-05-09T10:38:22.520Z,17.64
2024-05-09T10:39:22.374Z,17.64
2024-05-09T10:40:26.632Z,17.64
2024-05-09T10:41:22.320Z,17.79
2024-05-09T10:42:22.285Z,17.79
2024-05-09T10:43:22.398Z,17.89
2024-05-09T10:44:22.268Z,18.22
2024-05-09T10:45:22.197Z,18.39
2024-05-09T10:46:22.212Z,18.40
2024-05-09T10:47:22.186Z,18.52
2024-05-09T10:48:22.175Z,18.68
2024-05-09T10:49:22.163Z,18.70
2024-05-09T10:50:28.340Z,18.62
2024-05-09T10:51:22.016Z,18.67
2024-05-09T10:52:22.029Z,18.73
2024-05-09T10:53:21.985Z,18.84
2024-05-09T10:54:21.963Z,18.95
2024-05-09T10:55:22.169Z,19.11
2024-05-09T10:56:21.882Z,19.20
2024-05-09T10:58:21.865Z,19.15
2024-05-09T10:59:21.802Z,19.39
2024-05-09T11:00:27.780Z,19.33
2024-05-09T11:01:21.803Z,19.33
2024-05-09T11:02:21.862Z,19.47
2024-05-09T11:03:21.722Z,19.43
2024-05-09T11:04:42.757Z,19.54
2024-05-09T11:05:21.815Z,19.66
2024-05-09T11:06:21.587Z,19.75
2024-05-09T11:07:21.700Z,19.79
2024-05-09T11:08:21.532Z,19.91
2024-05-09T11:09:21.515Z,20.10
2024-05-09T11:10:42.596Z,20.10
2024-05-09T11:11:21.478Z,20.05
2024-05-09T11:12:23.592Z,20.10
2024-05-09T11:13:21.447Z,20.35
2024-05-09T11:14:21.366Z,20.53
2024-05-09T11:15:21.353Z,20.59
2024-05-09T11:16:42.306Z,20.76
2024-05-09T11:17:21.440Z,20.90
2024-05-09T11:18:24.458Z,21.14
2024-05-09T11:19:21.333Z,21.39
2024-05-09T11:20:26.950Z,21.64
2024-05-09T11:21:21.170Z,21.74
2024-05-09T11:22:42.157Z,21.78
2024-05-09T11:23:21.125Z,22.04
2024-05-09T11:24:21.094Z,22.04
2024-05-09T11:25:21.115Z,22.16
2024-05-09T11:26:21.042Z,22.35
2024-05-09T11:27:21.020Z,22.41
2024-05-09T11:28:42.012Z,22.50
2024-05-09T11:29:20.983Z,22.64
2024-05-09T11:30:26.877Z,22.57
2024-05-09T11:31:21.218Z,22.41
2024-05-09T11:32:20.972Z,22.43
2024-05-09T11:33:20.890Z,22.39
2024-05-09T11:34:41.919Z,22.22
2024-05-09T11:35:20.810Z,22.29
2024-05-09T11:36:20.783Z,22.52
2024-05-09T11:37:20.865Z,22.71
2024-05-09T11:38:20.728Z,22.99
2024-05-09T11:39:20.727Z,22.96
2024-05-09T11:40:41.826Z,23.20
2024-05-09T11:41:20.664Z,23.31
2024-05-09T11:42:20.625Z,23.39
2024-05-09T11:43:20.773Z,23.40
2024-05-09T11:44:20.586Z,23.42
2024-05-09T11:45:20.566Z,23.52
2024-05-09T11:46:41.538Z,23.52
2024-05-09T11:47:20.553Z,23.47
2024-05-09T11:48:20.690Z,23.50
2024-05-09T11:49:21.469Z,23.68
2024-05-09T11:50:27.165Z,23.97
2024-05-09T11:51:20.414Z,24.13
2024-05-09T11:52:41.385Z,23.89
2024-05-09T11:53:20.372Z,23.70
2024-05-09T11:54:20.344Z,23.65
2024-05-09T11:55:20.846Z,23.67
2024-05-09T11:56:20.288Z,24.00
2024-05-09T11:57:20.271Z,24.16
2024-05-09T11:58:41.235Z,24.52
2024-05-09T11:59:20.224Z,24.77
2024-05-09T12:00:29.089Z,24.94
2024-05-09T12:01:21.356Z,25.15
2024-05-09T12:02:20.400Z,25.43
2024-05-09T12:03:20.144Z,25.61
2024-05-09T12:04:41.333Z,25.54
2024-05-09T12:05:20.423Z,25.71
2024-05-09T12:06:20.049Z,25.69
2024-05-09T12:07:20.144Z,25.84
2024-05-09T12:08:20.006Z,25.65
2024-05-09T12:09:19.985Z,25.43
2024-05-09T12:10:41.328Z,25.17
2024-05-09T12:11:19.998Z,25.02
2024-05-09T12:12:19.936Z,24.60
2024-05-09T12:13:20.051Z,24.44
2024-05-09T12:14:19.872Z,24.31
2024-05-09T12:15:19.851Z,24.38
2024-05-09T12:16:40.903Z,24.27
2024-05-09T12:17:19.896Z,24.23
2024-05-09T12:18:19.829Z,24.20
2024-05-09T12:19:19.776Z,24.10
2024-05-09T12:20:28.363Z,24.10
2024-05-09T12:21:19.703Z,24.24
2024-05-09T12:22:40.679Z,24.61
2024-05-09T12:23:19.702Z,24.97
2024-05-09T12:24:19.648Z,25.15
2024-05-09T12:25:19.660Z,25.44
2024-05-09T12:26:19.589Z,25.68
2024-05-09T12:27:19.563Z,25.68
2024-05-09T12:28:40.531Z,25.72
2024-05-09T12:29:19.511Z,25.89
2024-05-09T12:30:32.144Z,25.94
2024-05-09T12:31:19.512Z,25.74
2024-05-09T12:32:19.471Z,25.56
2024-05-09T12:33:19.493Z,25.49
2024-05-09T12:34:40.431Z,25.64
2024-05-09T12:35:19.386Z,25.72
2024-05-09T12:36:19.910Z,25.97
2024-05-09T12:37:19.399Z,26.02
2024-05-09T12:38:19.303Z,25.93
2024-05-09T12:39:19.296Z,25.72
2024-05-09T12:40:40.348Z,25.65
2024-05-09T12:41:19.230Z,25.61
2024-05-09T12:42:26.785Z,25.67
2024-05-09T12:43:19.284Z,25.56
2024-05-09T12:44:19.165Z,25.50
2024-05-09T12:45:19.136Z,25.22
2024-05-09T12:46:40.106Z,25.09
2024-05-09T12:47:19.119Z,24.83
2024-05-09T12:48:19.243Z,24.54
2024-05-09T12:49:20.084Z,24.27
2024-05-09T12:50:28.873Z,24.19
2024-05-09T12:51:18.992Z,24.12
2024-05-09T12:52:39.989Z,24.14
2024-05-09T12:53:18.949Z,24.12
2024-05-09T12:54:18.923Z,24.17
2024-05-09T12:55:18.984Z,24.23
2024-05-09T12:56:18.884Z,24.23
2024-05-09T12:57:18.848Z,24.29
2024-05-09T12:58:39.812Z,24.12
2024-05-09T12:59:18.791Z,23.92
2024-05-09T13:00:24.047Z,23.95
2024-05-09T13:01:18.812Z,24.01
2024-05-09T13:02:19.002Z,24.13